createdAt,value
2018-07-19T00:01:51.571Z,4.40
2018-07-19T00:04:19.656Z,3.93
2018-07-19T00:06:47.721Z,2.97
2018-07-19T00:09:15.585Z,4.30
2018-07-19T00:11:43.658Z,5.00
2018-07-19T00:14:11.742Z,3.40
2018-07-19T00:16:39.818Z,4.87
2018-07-19T00:19:07.890Z,4.90
2018-07-19T00:21:35.955Z,8.50
2018-07-19T00:24:04.042Z,2.83
2018-07-19T00:26:32.159Z,2.87
2018-07-19T00:29:00.227Z,4.00
2018-07-19T00:31:28.381Z,3.70
2018-07-19T00:33:56.521Z,5.47
2018-07-19T00:36:24.545Z,4.30
2018-07-19T00:38:52.623Z,5.63
2018-07-19T00:41:20.785Z,4.83
2018-07-19T00:43:55.352Z,4.30
2018-07-19T00:46:23.458Z,4.03
2018-07-19T00:48:51.519Z,3.30
2018-07-19T00:51:19.623Z,4.53
2018-07-19T00:53:54.027Z,3.63
2018-07-19T00:56:22.112Z,3.60
2018-07-19T00:58:50.191Z,5.47
2018-07-19T01:01:18.304Z,6.40
2018-07-19T01:03:46.428Z,8.07
2018-07-19T01:06:14.512Z,3.93
2018-07-19T01:08:42.608Z,3.87
2018-07-19T01:11:10.679Z,4.47
2018-07-19T01:13:38.773Z,5.73
2018-07-19T01:16:06.859Z,4.10
2018-07-19T01:18:34.945Z,4.50
2018-07-19T01:21:03.029Z,5.90
2018-07-19T01:23:31.116Z,7.33
2018-07-19T01:25:59.199Z,7.60
2018-07-19T01:28:27.275Z,7.20
2018-07-19T01:30:55.351Z,9.43
2018-07-19T01:33:23.511Z,7.97
2018-07-19T01:35:51.611Z,7.07
2018-07-19T01:38:19.711Z,13.93
2018-07-19T01:40:47.793Z,9.37
2018-07-19T01:43:16.019Z,8.50
2018-07-19T01:45:58.950Z,9.00
2018-07-19T01:48:27.108Z,9.20
2018-07-19T01:50:55.277Z,10.77
2018-07-19T01:53:23.380Z,7.50
2018-07-19T01:55:51.537Z,7.97
2018-07-19T01:58:19.653Z,12.60
2018-07-19T02:00:47.752Z,6.60
2018-07-19T02:03:15.865Z,6.23
2018-07-19T02:05:43.955Z,8.30
2018-07-19T02:08:12.068Z,6.10
2018-07-19T02:10:40.188Z,5.50
2018-07-19T02:13:08.291Z,4.93
2018-07-19T02:15:36.425Z,5.67
2018-07-19T02:18:04.682Z,5.70
2018-07-19T02:20:32.779Z,4.40
2018-07-19T02:23:00.888Z,7.20
2018-07-19T02:25:28.996Z,6.70
2018-07-19T02:27:57.121Z,7.60
2018-07-19T02:30:25.215Z,6.40
2018-07-19T02:32:53.332Z,7.40
2018-07-19T02:35:21.418Z,6.57
2018-07-19T02:37:49.527Z,11.07
2018-07-19T02:40:17.630Z,8.27
2018-07-19T02:42:45.771Z,13.60
2018-07-19T02:45:13.900Z,11.73
2018-07-19T02:47:42.003Z,9.63
2018-07-19T02:50:10.111Z,10.33
2018-07-19T02:52:38.004Z,11.73
2018-07-19T02:55:06.117Z,9.03
2018-07-19T02:57:34.226Z,10.93
2018-07-19T03:00:02.366Z,13.00
2018-07-19T03:02:30.484Z,9.47
2018-07-19T03:04:58.602Z,13.37
2018-07-19T03:07:26.704Z,9.00
2018-07-19T03:09:54.853Z,11.13
2018-07-19T03:12:22.951Z,8.40
2018-07-19T03:14:51.074Z,10.77
2018-07-19T03:17:19.174Z,11.00
2018-07-19T03:19:47.273Z,10.40
2018-07-19T03:22:15.380Z,8.60
2018-07-19T03:24:43.684Z,10.70
2018-07-19T03:27:11.775Z,8.10
2018-07-19T03:29:39.869Z,11.20
2018-07-19T03:32:07.954Z,12.20
2018-07-19T03:34:36.041Z,9.50
2018-07-19T03:37:04.123Z,12.73
2018-07-19T03:39:32.239Z,13.30
2018-07-19T03:42:00.314Z,14.27
2018-07-19T03:44:28.536Z,17.77
2018-07-19T03:46:56.635Z,22.00
2018-07-19T03:49:24.749Z,22.30
2018-07-19T03:51:52.859Z,18.93
2018-07-19T03:54:20.960Z,21.70
2018-07-19T03:56:49.047Z,16.70
2018-07-19T03:59:17.156Z,13.80
2018-07-19T04:01:45.257Z,14.80
2018-07-19T04:04:13.334Z,17.10
2018-07-19T04:06:41.474Z,15.13
2018-07-19T04:09:09.575Z,26.80
2018-07-19T04:11:37.681Z,19.73
2018-07-19T04:14:06.095Z,23.53
2018-07-19T04:16:34.210Z,20.37
2018-07-19T04:19:02.345Z,19.60
2018-07-19T04:21:30.506Z,17.90
2018-07-19T04:23:58.618Z,18.67
2018-07-19T04:26:26.769Z,17.67
2018-07-19T04:28:54.875Z,19.30
2018-07-19T04:31:22.993Z,17.00
2018-07-19T04:33:51.072Z,19.00
2018-07-19T04:36:19.178Z,12.47
2018-07-19T04:38:47.285Z,17.20
2018-07-19T04:41:15.451Z,11.30
2018-07-19T04:43:43.547Z,15.20
2018-07-19T04:46:11.642Z,13.27
2018-07-19T04:48:39.752Z,11.50
2018-07-19T04:51:07.888Z,10.87
2018-07-19T04:53:35.996Z,11.07
2018-07-19T04:56:04.098Z,9.27
2018-07-19T04:58:32.187Z,8.67
2018-07-19T05:01:00.290Z,7.53
2018-07-19T05:03:28.406Z,6.47
2018-07-19T05:05:56.513Z,7.50
2018-07-19T05:08:24.662Z,6.17
2018-07-19T05:10:52.765Z,7.70
2018-07-19T05:13:20.860Z,8.93
2018-07-19T05:15:48.980Z,7.80
2018-07-19T05:18:18.191Z,7.70
2018-07-19T05:20:46.289Z,16.60
2018-07-19T05:23:14.427Z,14.37
2018-07-19T05:25:42.458Z,9.70
2018-07-19T05:28:10.538Z,7.47
2018-07-19T05:30:38.639Z,5.93
2018-07-19T05:33:06.746Z,6.43
2018-07-19T05:35:34.850Z,6.80
2018-07-19T05:38:03.023Z,4.60
2018-07-19T05:40:31.142Z,6.83
2018-07-19T05:42:59.213Z,4.30
2018-07-19T05:45:27.320Z,5.67
2018-07-19T05:47:55.408Z,7.43
2018-07-19T05:50:23.533Z,4.20
2018-07-19T05:52:51.616Z,3.20
2018-07-19T05:55:19.713Z,4.93
2018-07-19T05:57:47.801Z,7.20
2018-07-19T06:00:15.923Z,7.93
2018-07-19T06:02:44.033Z,5.23
2018-07-19T06:05:12.184Z,4.73
2018-07-19T06:07:40.267Z,4.00
2018-07-19T06:10:08.342Z,7.23
2018-07-19T06:12:36.436Z,2.80
2018-07-19T06:15:05.193Z,3.27
2018-07-19T06:17:33.288Z,2.63
2018-07-19T06:20:01.380Z,3.93
2018-07-19T06:22:29.500Z,3.30
2018-07-19T06:24:57.603Z,2.70
2018-07-19T06:27:25.691Z,2.03
2018-07-19T06:29:53.793Z,3.80
2018-07-19T06:32:21.867Z,3.33
2018-07-19T06:34:49.956Z,3.57
2018-07-19T06:37:18.732Z,2.53
2018-07-19T06:39:46.823Z,5.03
2018-07-19T06:42:14.939Z,4.47
2018-07-19T06:44:43.025Z,5.40
2018-07-19T06:47:11.218Z,7.33
2018-07-19T06:49:39.308Z,2.13
2018-07-19T06:52:10.688Z,2.63
2018-07-19T06:54:39.499Z,5.10
2018-07-19T06:57:07.648Z,3.23
2018-07-19T06:59:35.729Z,2.93
2018-07-19T07:02:04.007Z,2.80
2018-07-19T07:04:32.085Z,6.50
2018-07-19T07:07:00.163Z,3.53
2018-07-19T07:09:28.255Z,3.87
2018-07-19T07:11:56.340Z,2.57
2018-07-19T07:14:24.432Z,3.83
2018-07-19T07:16:52.548Z,3.87
2018-07-19T07:19:20.642Z,5.20
2018-07-19T07:21:48.762Z,2.40
2018-07-19T07:24:16.878Z,4.20
2018-07-19T07:26:45.013Z,2.73
2018-07-19T07:29:13.136Z,2.13
2018-07-19T07:31:41.374Z,1.67
2018-07-19T07:34:09.473Z,4.33
2018-07-19T07:36:37.571Z,2.27
2018-07-19T07:39:07.972Z,1.70
2018-07-19T07:41:36.082Z,2.70
2018-07-19T07:44:04.243Z,3.93
2018-07-19T07:46:32.349Z,1.87
2018-07-19T07:49:00.438Z,2.30
2018-07-19T07:51:28.554Z,3.63
2018-07-19T07:53:56.685Z,7.60
2018-07-19T07:56:24.826Z,6.40
2018-07-19T07:58:52.926Z,2.70
2018-07-19T08:01:21.041Z,3.13
2018-07-19T08:03:49.134Z,2.83
2018-07-19T08:06:17.253Z,3.40
2018-07-19T08:08:45.367Z,3.33
2018-07-19T08:11:13.453Z,2.50
2018-07-19T08:13:41.567Z,4.90
2018-07-19T08:16:09.715Z,2.30
2018-07-19T08:18:37.817Z,1.20
2018-07-19T08:21:05.939Z,1.90
2018-07-19T08:23:34.065Z,4.33
2018-07-19T08:26:02.191Z,4.70
2018-07-19T08:28:30.299Z,14.90
2018-07-19T08:30:58.395Z,2.20
2018-07-19T08:33:26.516Z,7.67
2018-07-19T08:35:54.686Z,4.20
2018-07-19T08:38:22.734Z,4.00
2018-07-19T08:40:50.819Z,3.03
2018-07-19T08:43:18.957Z,2.40
2018-07-19T08:45:47.075Z,2.70
2018-07-19T08:48:15.226Z,3.67
2018-07-19T08:50:43.384Z,4.33
2018-07-19T08:53:11.512Z,4.73
2018-07-19T08:55:39.607Z,1.83
2018-07-19T08:58:07.728Z,2.10
2018-07-19T09:00:35.818Z,2.63
2018-07-19T09:03:03.976Z,5.57
2018-07-19T09:05:32.076Z,5.67
2018-07-19T09:08:00.200Z,3.93
2018-07-19T09:10:28.299Z,4.93
2018-07-19T09:12:56.403Z,6.07
2018-07-19T09:15:24.510Z,4.57
2018-07-19T09:17:52.639Z,2.97
2018-07-19T09:20:20.912Z,4.50
2018-07-19T09:22:49.071Z,3.87
2018-07-19T09:25:17.140Z,3.57
2018-07-19T09:27:47.268Z,6.53
2018-07-19T09:30:15.392Z,4.50
2018-07-19T09:32:43.537Z,4.97
2018-07-19T09:35:11.602Z,2.80
2018-07-19T09:37:39.695Z,3.43
2018-07-19T09:40:07.857Z,3.97
2018-07-19T09:42:35.955Z,4.83
2018-07-19T09:45:04.072Z,3.77
2018-07-19T09:47:32.199Z,7.03
2018-07-19T09:50:00.300Z,3.90
2018-07-19T09:52:28.412Z,4.30
2018-07-19T09:54:58.490Z,2.63
2018-07-19T09:57:27.567Z,3.43
2018-07-19T09:59:55.671Z,2.77
2018-07-19T10:02:24.027Z,2.93
2018-07-19T10:04:52.146Z,5.63
2018-07-19T10:07:20.589Z,5.20
2018-07-19T10:09:48.706Z,4.77
2018-07-19T10:12:16.896Z,3.13
2018-07-19T10:14:45.316Z,3.33
2018-07-19T10:17:13.411Z,2.70
2018-07-19T10:19:41.486Z,2.33
2018-07-19T10:22:09.557Z,2.70
2018-07-19T10:24:37.663Z,3.83
2018-07-19T10:27:05.768Z,3.00
2018-07-19T10:29:33.897Z,5.00
2018-07-19T10:32:02.055Z,2.53
2018-07-19T10:34:30.135Z,2.43
2018-07-19T10:36:58.165Z,3.13
2018-07-19T10:39:26.253Z,4.60
2018-07-19T10:41:54.331Z,3.93
2018-07-19T10:44:22.437Z,2.07
2018-07-19T10:46:50.531Z,2.43
2018-07-19T10:49:18.634Z,5.40
2018-07-19T10:51:46.739Z,3.17
2018-07-19T10:54:14.813Z,2.10
2018-07-19T10:56:42.891Z,3.27
2018-07-19T10:59:11.003Z,2.40
2018-07-19T11:01:39.095Z,2.33
2018-07-19T11:04:07.232Z,3.47
2018-07-19T11:06:35.310Z,2.43
2018-07-19T11:09:03.508Z,3.10
2018-07-19T11:11:31.604Z,2.77
2018-07-19T11:13:59.670Z,4.60
2018-07-19T11:16:27.804Z,3.07
2018-07-19T11:18:55.858Z,3.63
2018-07-19T11:21:23.953Z,2.60
2018-07-19T11:23:52.184Z,2.77
2018-07-19T11:26:20.287Z,2.73
2018-07-19T11:28:48.806Z,2.97
2018-07-19T11:31:17.268Z,2.87
2018-07-19T11:33:45.390Z,3.97
2018-07-19T11:36:13.490Z,2.93
2018-07-19T11:38:41.580Z,5.13
2018-07-19T11:41:09.698Z,2.87
2018-07-19T11:43:37.779Z,2.33
2018-07-19T11:46:05.979Z,2.40
2018-07-19T11:48:34.087Z,2.50
2018-07-19T11:51:02.226Z,3.73
2018-07-19T11:53:30.303Z,3.50
2018-07-19T11:55:58.401Z,3.10
2018-07-19T11:58:26.474Z,2.60
2018-07-19T12:00:54.578Z,2.77
2018-07-19T12:03:22.650Z,4.87
2018-07-19T12:05:50.735Z,2.93
2018-07-19T12:08:18.832Z,2.40
2018-07-19T12:10:46.914Z,3.70
2018-07-19T12:13:15.008Z,2.33
2018-07-19T12:15:43.143Z,5.10
2018-07-19T12:18:11.324Z,3.43
2018-07-19T12:20:39.359Z,3.40
2018-07-19T12:23:07.455Z,3.40
2018-07-19T12:25:35.630Z,2.43
2018-07-19T12:28:03.730Z,3.77
2018-07-19T12:30:31.870Z,3.43
2018-07-19T12:32:59.964Z,2.10
2018-07-19T12:35:28.071Z,4.77
2018-07-19T12:37:56.179Z,2.80
2018-07-19T12:40:25.116Z,2.87
2018-07-19T12:42:53.248Z,3.03
2018-07-19T12:45:21.356Z,2.63
2018-07-19T12:47:49.467Z,4.70
2018-07-19T12:50:17.550Z,2.73
2018-07-19T12:52:45.650Z,6.40
2018-07-19T12:55:13.759Z,3.30
2018-07-19T12:57:41.915Z,3.40
2018-07-19T13:00:10.067Z,4.40
2018-07-19T13:02:38.230Z,2.57
2018-07-19T13:05:06.338Z,3.80
2018-07-19T13:07:34.499Z,3.40
2018-07-19T13:10:02.600Z,4.50
2018-07-19T13:12:30.707Z,2.40
2018-07-19T13:14:58.831Z,3.13
2018-07-19T13:17:26.936Z,2.70
2018-07-19T13:19:55.026Z,5.83
2018-07-19T13:22:23.174Z,5.53
2018-07-19T13:24:51.307Z,2.83
2018-07-19T13:27:19.414Z,4.10
2018-07-19T13:29:47.505Z,4.23
2018-07-19T13:32:15.631Z,3.03
2018-07-19T13:34:43.774Z,2.37
2018-07-19T13:37:11.914Z,2.63
2018-07-19T13:39:40.072Z,3.20
2018-07-19T13:42:08.190Z,3.00
2018-07-19T13:44:36.302Z,3.40
2018-07-19T13:47:04.406Z,2.43
2018-07-19T13:49:32.523Z,3.27
2018-07-19T13:52:00.656Z,6.33
2018-07-19T13:54:40.055Z,2.47
2018-07-19T13:57:08.419Z,3.73
2018-07-19T13:59:36.584Z,4.70
2018-07-19T14:02:04.778Z,4.43
2018-07-19T14:04:32.868Z,3.30
2018-07-19T14:07:00.979Z,3.07
2018-07-19T14:09:29.085Z,2.77
2018-07-19T14:11:57.192Z,3.97
2018-07-19T14:14:25.323Z,3.07
2018-07-19T14:16:53.410Z,4.47
2018-07-19T14:19:21.688Z,2.60
2018-07-19T14:21:49.775Z,4.30
2018-07-19T14:24:17.861Z,2.63
2018-07-19T14:26:46.027Z,4.17
2018-07-19T14:29:14.114Z,4.23
2018-07-19T14:31:42.202Z,3.33
2018-07-19T14:34:10.315Z,3.20
2018-07-19T14:36:38.406Z,2.90
2018-07-19T14:39:08.591Z,2.63
2018-07-19T14:41:36.817Z,2.97
2018-07-19T14:44:05.347Z,3.37
2018-07-19T14:46:33.463Z,2.97
2018-07-19T14:49:01.563Z,3.10
2018-07-19T14:51:29.651Z,8.80
2018-07-19T14:53:57.741Z,5.67
2018-07-19T14:56:25.821Z,2.33
2018-07-19T14:58:53.972Z,3.30
2018-07-19T15:01:22.067Z,4.43
2018-07-19T15:03:50.171Z,4.40
2018-07-19T15:06:18.300Z,2.83
2018-07-19T15:08:46.375Z,5.90
2018-07-19T15:11:14.474Z,6.27
2018-07-19T15:13:42.559Z,3.23
2018-07-19T15:16:10.704Z,2.90
2018-07-19T15:18:38.784Z,3.93
2018-07-19T15:21:06.939Z,3.07
2018-07-19T15:23:35.038Z,3.10
2018-07-19T15:26:03.178Z,2.43
2018-07-19T15:28:31.270Z,2.90
2018-07-19T15:30:59.376Z,3.10
2018-07-19T15:33:27.478Z,4.50
2018-07-19T15:35:55.598Z,3.13
2018-07-19T15:38:23.694Z,3.70
2018-07-19T15:40:51.809Z,3.00
2018-07-19T15:43:19.908Z,3.10
2018-07-19T15:45:48.061Z,4.40
2018-07-19T15:48:16.184Z,3.27
2018-07-19T15:50:44.288Z,2.77
2018-07-19T15:53:12.389Z,3.57
2018-07-19T15:55:40.483Z,3.57
2018-07-19T15:58:08.575Z,4.67
2018-07-19T16:00:36.678Z,7.33
2018-07-19T16:03:04.840Z,4.40
2018-07-19T16:05:32.974Z,3.60
2018-07-19T16:08:01.101Z,3.00
2018-07-19T16:10:29.204Z,3.03
2018-07-19T16:12:57.307Z,3.30
2018-07-19T16:15:26.255Z,4.70
2018-07-19T16:17:54.359Z,3.23
2018-07-19T16:20:22.466Z,3.20
2018-07-19T16:22:52.778Z,6.93
2018-07-19T16:25:20.913Z,3.50
2018-07-19T16:27:49.005Z,6.00
2018-07-19T16:30:17.098Z,5.03
2018-07-19T16:32:45.234Z,3.03
2018-07-19T16:35:13.345Z,3.77
2018-07-19T16:37:41.520Z,4.00
2018-07-19T16:40:09.615Z,3.40
2018-07-19T16:42:37.727Z,4.50
2018-07-19T16:45:05.863Z,4.40
2018-07-19T16:47:33.985Z,4.63
2018-07-19T16:50:02.142Z,3.60
2018-07-19T16:52:30.290Z,6.80
2018-07-19T16:54:58.461Z,3.83
2018-07-19T16:57:26.593Z,9.60
2018-07-19T16:59:54.703Z,4.00
2018-07-19T17:02:22.846Z,4.57
2018-07-19T17:04:51.017Z,5.10
2018-07-19T17:07:19.144Z,4.17
2018-07-19T17:09:47.235Z,3.83
2018-07-19T17:12:15.343Z,3.37
2018-07-19T17:14:43.442Z,2.83
2018-07-19T17:17:11.586Z,4.60
2018-07-19T17:19:39.721Z,3.47
2018-07-19T17:22:07.970Z,5.43
2018-07-19T17:24:36.069Z,6.77
2018-07-19T17:27:04.291Z,3.50
2018-07-19T17:29:32.379Z,3.20
2018-07-19T17:32:00.505Z,3.20
2018-07-19T17:34:28.615Z,4.30
2018-07-19T17:36:56.700Z,3.10
2018-07-19T17:39:24.773Z,4.40
2018-07-19T17:41:52.862Z,4.33
2018-07-19T17:44:20.999Z,4.53
2018-07-19T17:46:49.082Z,5.43
2018-07-19T17:49:17.214Z,4.97
2018-07-19T17:51:45.414Z,3.43
2018-07-19T17:54:13.596Z,4.23
2018-07-19T17:56:41.751Z,5.30
2018-07-19T17:59:09.806Z,3.80
2018-07-19T18:01:37.907Z,4.80
2018-07-19T18:04:05.991Z,6.57
2018-07-19T18:06:34.071Z,3.70
2018-07-19T18:09:02.226Z,3.30
2018-07-19T18:11:30.311Z,4.43
2018-07-19T18:13:58.397Z,3.50
2018-07-19T18:16:26.546Z,9.70
2018-07-19T18:18:54.678Z,3.07
2018-07-19T18:21:22.795Z,6.20
2018-07-19T18:23:50.894Z,3.23
2018-07-19T18:26:19.008Z,4.00
2018-07-19T18:28:47.101Z,6.30
2018-07-19T18:31:15.173Z,6.43
2018-07-19T18:33:43.259Z,5.70
2018-07-19T18:36:11.336Z,3.77
2018-07-19T18:38:39.417Z,3.73
2018-07-19T18:41:07.521Z,3.50
2018-07-19T18:43:35.606Z,4.77
2018-07-19T18:46:03.704Z,4.87
2018-07-19T18:48:33.279Z,4.70
2018-07-19T18:51:01.691Z,4.10
2018-07-19T18:53:29.827Z,4.03
2018-07-19T18:55:57.976Z,6.20
2018-07-19T18:58:26.266Z,4.57
2018-07-19T19:00:54.389Z,4.23
2018-07-19T19:03:23.130Z,5.07
2018-07-19T19:05:51.223Z,4.20
2018-07-19T19:08:19.314Z,4.60
2018-07-19T19:10:47.398Z,3.20
2018-07-19T19:13:15.495Z,3.57
2018-07-19T19:15:43.670Z,4.60
2018-07-19T19:18:11.782Z,4.80
2018-07-19T19:20:39.883Z,4.97
2018-07-19T19:23:07.982Z,3.70
2018-07-19T19:25:36.206Z,5.10
2018-07-19T19:28:04.286Z,4.53
2018-07-19T19:30:32.385Z,4.57
2018-07-19T19:33:00.256Z,3.30
2018-07-19T19:35:28.375Z,5.37
2018-07-19T19:37:56.479Z,5.77
2018-07-19T19:40:24.647Z,3.80
2018-07-19T19:42:52.701Z,4.13
2018-07-19T19:45:20.822Z,5.80
2018-07-19T19:47:48.983Z,5.13
2018-07-19T19:50:17.076Z,6.27
2018-07-19T19:52:45.192Z,3.67
2018-07-19T19:55:13.304Z,4.40
2018-07-19T19:57:41.415Z,5.43
2018-07-19T20:00:10.962Z,7.03
2018-07-19T20:02:39.051Z,7.83
2018-07-19T20:05:07.223Z,4.93
2018-07-19T20:07:35.739Z,7.60
2018-07-19T20:10:04.284Z,4.93
2018-07-19T20:12:32.360Z,3.97
2018-07-19T20:15:00.455Z,5.17
2018-07-19T20:17:28.560Z,5.27
2018-07-19T20:19:56.638Z,5.90
2018-07-19T20:22:24.778Z,7.13
2018-07-19T20:24:52.898Z,3.90
2018-07-19T20:27:20.991Z,4.30
2018-07-19T20:29:49.076Z,4.10
2018-07-19T20:33:20.715Z,6.50
2018-07-19T20:35:48.795Z,5.47
2018-07-19T20:38:16.940Z,4.80
2018-07-19T20:40:45.068Z,4.50
2018-07-19T20:43:13.144Z,4.67
2018-07-19T20:45:41.292Z,7.10
2018-07-19T20:48:09.404Z,8.03
2018-07-19T20:50:37.524Z,5.47
2018-07-19T20:53:06.569Z,6.13
2018-07-19T20:55:41.329Z,5.93
2018-07-19T20:58:09.394Z,5.43
2018-07-19T21:00:37.499Z,7.97
2018-07-19T21:03:05.612Z,5.03
2018-07-19T21:05:33.702Z,4.80
2018-07-19T21:08:01.769Z,6.30
2018-07-19T21:10:29.875Z,5.03
2018-07-19T21:12:58.027Z,8.20
2018-07-19T21:15:26.745Z,4.67
2018-07-19T21:17:54.862Z,6.63
2018-07-19T21:20:22.974Z,5.10
2018-07-19T21:22:51.233Z,3.90
2018-07-19T21:25:19.318Z,9.43
2018-07-19T21:27:47.521Z,7.70
2018-07-19T21:30:15.616Z,12.80
2018-07-19T21:32:43.707Z,6.10
2018-07-19T21:35:11.844Z,5.60
2018-07-19T21:37:39.974Z,7.37
2018-07-19T21:40:08.072Z,7.43
2018-07-19T21:42:36.203Z,7.00
2018-07-19T21:45:04.828Z,10.23
2018-07-19T21:47:32.926Z,9.03
2018-07-19T21:50:01.047Z,6.80
2018-07-19T21:52:29.171Z,10.83
2018-07-19T21:54:57.257Z,7.03
2018-07-19T21:57:25.377Z,8.47
2018-07-19T21:59:53.477Z,11.50
2018-07-19T22:02:21.591Z,5.30
2018-07-19T22:04:49.775Z,6.80
2018-07-19T22:07:17.900Z,6.93
2018-07-19T22:09:46.004Z,6.50
2018-07-19T22:12:14.110Z,12.50
2018-07-19T22:14:42.236Z,6.60
2018-07-19T22:17:10.516Z,7.53
2018-07-19T22:19:38.582Z,6.57
2018-07-19T22:22:06.750Z,10.43
2018-07-19T22:24:34.862Z,9.40
2018-07-19T22:27:02.974Z,15.40
2018-07-19T22:29:31.773Z,11.20
2018-07-19T22:31:59.893Z,10.00
2018-07-19T22:34:28.009Z,7.57
2018-07-19T22:36:56.203Z,5.67
2018-07-19T22:39:26.119Z,10.50
2018-07-19T22:41:54.292Z,7.10
2018-07-19T22:44:22.410Z,8.33
2018-07-19T22:46:50.504Z,12.70
2018-07-19T22:49:18.601Z,8.47
2018-07-19T22:55:18.127Z,7.13
2018-07-19T22:57:46.206Z,5.40
2018-07-19T23:00:14.283Z,10.30
2018-07-19T23:02:42.384Z,6.80
2018-07-19T23:05:10.489Z,7.30
2018-07-19T23:07:38.667Z,11.17
2018-07-19T23:10:06.771Z,6.40
2018-07-19T23:12:34.875Z,7.27
2018-07-19T23:15:03.064Z,8.03
2018-07-19T23:17:31.386Z,8.80
2018-07-19T23:19:59.509Z,11.10
2018-07-19T23:22:27.622Z,6.23
2018-07-19T23:24:55.719Z,8.00
2018-07-19T23:27:23.822Z,8.20
2018-07-19T23:29:51.923Z,7.50
2018-07-19T23:32:20.007Z,7.77
2018-07-19T23:34:48.581Z,6.13
2018-07-19T23:37:19.925Z,8.43
2018-07-19T23:39:51.386Z,6.30
2018-07-19T23:42:23.678Z,8.23
2018-07-19T23:45:01.046Z,5.40
2018-07-19T23:47:32.107Z,5.77
2018-07-19T23:50:00.215Z,8.70
2018-07-19T23:52:28.380Z,7.50
2018-07-19T23:54:56.424Z,6.07
2018-07-19T23:57:24.518Z,7.17
2018-07-19T23:59:52.631Z,7.13
